Time;durP1;ratioP1;P1;durP2;ratioP2;P2;SDS_P1;SDS_P2;PMS_P1;PMS_P2;Temp;Humidity;BMP_temperature;BMP_pressure;BME280_temperature;BME280_humidity;BME280_pressure;Samples;Min_cycle;Max_cycle;Signal;HPM_P1;HPM_P2
2022/11/19 00:01:31;;;;;;;27.05;20.05;;;;;;;-0.60;100.00;98117.97;1785747;78;20907;-70
2022/11/19 00:03:58;;;;;;;27.65;20.35;;;;;;;-0.49;100.00;98122.02;1809650;78;21452;-68
2022/11/19 00:06:26;;;;;;;27.45;19.00;;;;;;;-0.53;100.00;98122.67;1809511;78;21168;-69
2022/11/19 00:08:54;;;;;;;29.95;21.30;;;;;;;-0.55;100.00;98121.55;1806438;78;21043;-69
2022/11/19 00:14:13;;;;;;;26.55;19.75;;;;;;;-0.42;100.00;98113.23;1816333;78;21017;-69
2022/11/19 00:16:40;;;;;;;29.80;21.35;;;;;;;-1.41;100.00;98103.78;1817467;78;20842;-69
2022/11/19 00:19:09;;;;;;;26.62;19.12;;;;;;;-1.25;100.00;98107.23;1816361;78;21369;-68
2022/11/19 00:21:37;;;;;;;29.40;21.35;;;;;;;-1.43;100.00;98097.92;1817270;79;20891;-68
2022/11/19 00:24:06;;;;;;;25.97;20.17;;;;;;;-1.47;100.00;98104.13;1813363;79;20950;-66
2022/11/19 00:26:33;;;;;;;26.82;21.42;;;;;;;-1.37;100.00;98092.62;1807060;79;20978;-71
2022/11/19 00:29:00;;;;;;;30.40;19.87;;;;;;;-0.77;100.00;98090.84;1803409;79;20934;-69
2022/11/19 00:31:26;;;;;;;32.23;20.80;;;;;;;-0.62;100.00;98089.19;1804580;79;21142;-69
2022/11/19 00:33:53;;;;;;;25.95;19.15;;;;;;;-0.94;100.00;98085.31;1810693;79;20918;-69
2022/11/19 00:36:21;;;;;;;30.48;21.62;;;;;;;-1.06;100.00;98087.02;1803383;79;21547;-69
2022/11/19 00:38:47;;;;;;;25.50;18.33;;;;;;;-1.05;100.00;98080.75;1807174;78;21024;-69
2022/11/19 00:41:14;;;;;;;26.27;20.12;;;;;;;-1.05;100.00;98074.17;1815724;78;21373;-67
2022/11/19 00:43:48;;;;;;;25.77;18.15;;;;;;;-1.02;100.00;98063.20;1811391;78;21090;-69
2022/11/19 00:46:24;;;;;;;25.08;19.10;;;;;;;-0.74;100.00;98061.42;1810043;78;21461;-70
2022/11/19 00:48:53;;;;;;;24.55;18.80;;;;;;;-0.90;100.00;98062.79;1803577;78;21041;-69
2022/11/19 00:51:21;;;;;;;26.77;20.27;;;;;;;-0.46;100.00;98050.41;1807004;79;20970;-69
2022/11/19 00:53:48;;;;;;;22.58;16.02;;;;;;;-0.79;100.00;98047.30;1814624;78;20839;-69
2022/11/19 00:56:18;;;;;;;29.98;21.05;;;;;;;-0.76;100.00;98039.77;1814060;78;21249;-69
2022/11/19 00:58:45;;;;;;;28.25;21.37;;;;;;;-0.87;100.00;98037.84;1807267;78;20879;-69
2022/11/19 01:01:14;;;;;;;34.45;25.92;;;;;;;-0.77;100.00;98036.83;1811767;78;21621;-68
2022/11/19 01:03:40;;;;;;;29.50;23.30;;;;;;;-0.69;100.00;98035.22;1807264;78;20958;-69
2022/11/19 01:06:08;;;;;;;45.30;31.30;;;;;;;-0.70;100.00;98038.09;1807201;78;21736;-68
2022/11/19 01:08:37;;;;;;;63.73;44.30;;;;;;;-0.94;100.00;98029.19;1813192;78;21265;-69
2022/11/19 01:11:13;;;;;;;50.75;30.37;;;;;;;-0.76;100.00;98033.67;1809711;78;20867;-71
2022/11/19 01:13:40;;;;;;;63.30;43.00;;;;;;;-0.66;100.00;98036.13;1811387;78;21452;-70
2022/11/19 01:16:16;;;;;;;36.10;26.17;;;;;;;-0.89;100.00;98027.52;1808582;79;20918;-70
2022/11/19 01:18:46;;;;;;;58.90;38.00;;;;;;;-1.13;100.00;98031.80;1807327;78;20961;-69
2022/11/19 01:21:13;;;;;;;44.63;30.40;;;;;;;-1.24;100.00;98025.91;1817539;78;21869;-68
2022/11/19 01:23:41;;;;;;;42.13;30.17;;;;;;;-1.21;100.00;98025.47;1818990;78;20871;-71
2022/11/19 01:26:08;;;;;;;41.80;30.50;;;;;;;-1.03;100.00;98019.95;1814117;78;21428;-69
2022/11/19 01:28:35;;;;;;;40.08;29.98;;;;;;;-0.44;100.00;98022.52;1811137;78;20934;-70
2022/11/19 01:31:10;;;;;;;27.80;21.68;;;;;;;-0.44;100.00;98024.64;1810684;78;20945;-69
2022/11/19 01:33:38;;;;;;;34.15;25.60;;;;;;;-0.32;100.00;98019.92;1811721;78;21177;-69
2022/11/19 01:36:12;;;;;;;33.08;25.57;;;;;;;-0.53;100.00;98014.61;1813118;78;21502;-69
2022/11/19 01:38:39;;;;;;;30.30;21.07;;;;;;;-0.34;100.00;98015.38;1811658;78;20844;-69
2022/11/19 01:41:06;;;;;;;22.10;17.95;;;;;;;-0.38;100.00;98005.81;1808532;78;20958;-69
2022/11/19 01:43:49;;;;;;;35.88;27.25;;;;;;;-0.38;100.00;98016.35;1815685;78;20946;-69
2022/11/19 01:46:21;;;;;;;38.05;26.65;;;;;;;-0.44;100.00;98008.02;1817052;78;20867;-68
2022/11/19 01:49:09;;;;;;;30.17;21.52;;;;;;;-0.34;100.00;98004.34;1811587;78;20991;-68
2022/11/19 01:51:40;;;;;;;;;;;;;;;-0.30;100.00;98004.18;1819996;78;21472;-68
2022/11/19 01:54:30;;;;;;;19.73;15.60;;;;;;;-0.36;100.00;97990.58;1805457;78;20425;-68
2022/11/19 01:57:01;;;;;;;20.57;15.53;;;;;;;-0.40;100.00;97994.67;1803538;78;21093;-72
2022/11/19 01:59:28;;;;;;;17.35;14.00;;;;;;;-0.25;100.00;97996.41;1812629;78;21489;-69
2022/11/19 02:01:55;;;;;;;17.77;15.18;;;;;;;-0.14;100.00;97995.39;1817118;78;21578;-70
2022/11/19 02:04:22;;;;;;;16.35;12.37;;;;;;;-0.14;100.00;97991.44;1808879;78;20931;-70
2022/11/19 02:06:49;;;;;;;19.42;12.98;;;;;;;-0.50;100.00;97995.70;1804915;78;20863;-69
2022/11/19 02:09:16;;;;;;;16.48;12.37;;;;;;;-0.33;100.00;97984.86;1806849;79;21448;-70
2022/11/19 02:11:53;;;;;;;14.75;10.98;;;;;;;-0.58;100.00;97988.11;1814897;78;21765;-69
2022/11/19 02:14:53;;;;;;;17.25;13.13;;;;;;;-144.96;0.00;76933.93;1814762;78;20918;-70
2022/11/19 02:17:44;;;;;;;15.68;11.38;;;;;;;-0.71;100.00;97981.95;1807799;79;21460;-70
2022/11/19 02:20:42;;;;;;;17.42;12.78;;;;;;;-92.48;100.00;97971.77;1814505;78;20978;-69
2022/11/19 02:23:50;;;;;;;16.05;11.80;;;;;;;-1.11;100.00;97969.69;1800861;79;21381;-70
2022/11/19 02:26:40;;;;;;;13.68;11.88;;;;;;;-144.92;0.00;76973.91;1811407;78;21151;-67
2022/11/19 02:29:32;;;;;;;13.90;12.45;;;;;;;;;;1811177;78;21116;-71
2022/11/19 02:33:07;;;;;;;15.78;12.43;;;;;;;-146.14;100.00;121243.23;1812205;78;21558;-68
2022/11/19 02:35:58;;;;;;;11.35;10.15;;;;;;;-146.13;0.00;121243.11;1814556;78;21456;-71
2022/11/19 02:39:20;;;;;;;13.55;10.78;;;;;;;-146.14;100.00;121243.23;1814138;78;20945;-66
2022/11/19 02:42:17;;;;;;;9.80;8.28;;;;;;;-146.14;100.00;121243.23;1804821;78;21348;-67
2022/11/19 02:45:42;;;;;;;11.75;10.23;;;;;;;-146.14;100.00;121243.23;1806330;78;20914;-67
2022/11/19 02:48:22;;;;;;;10.58;9.05;;;;;;;-146.14;100.00;121243.23;1814549;78;21006;-68
2022/11/19 02:50:54;;;;;;;12.88;10.58;;;;;;;-146.14;100.00;121243.23;1809296;78;20906;-68
2022/11/19 02:53:25;;;;;;;11.35;8.93;;;;;;;-146.14;100.00;121243.23;1807745;78;22354;-68
2022/11/19 02:56:10;;;;;;;14.05;9.73;;;;;;;-144.92;0.00;121243.11;1808562;79;21261;-69
2022/11/19 03:04:31;;;;;;;11.90;10.05;;;;;;;-1.11;100.00;97969.69;1804495;78;21429;-69
2022/11/19 03:07:07;;;;;;;12.58;10.48;;;;;;;-0.23;100.00;97971.94;1798862;79;20831;-70
2022/11/19 03:09:38;;;;;;;12.85;11.53;;;;;;;-0.15;100.00;97955.52;1812138;78;21208;-70
2022/11/19 03:12:25;;;;;;;13.15;9.95;;;;;;;-0.04;100.00;97960.84;1809479;78;20871;-69
2022/11/19 03:18:29;;;;;;;11.38;9.15;;;;;;;-0.05;100.00;97961.06;1815833;78;20874;-69
2022/11/19 03:21:14;;;;;;;11.73;9.03;;;;;;;-0.19;100.00;97975.48;1814836;78;21432;-70
2022/11/19 03:23:54;;;;;;;10.78;9.68;;;;;;;-0.06;100.00;97967.38;1814574;78;21204;-69
2022/11/19 03:26:53;;;;;;;11.00;9.28;;;;;;;-0.08;100.00;97973.38;1805824;78;21435;-72
2022/11/19 03:29:19;;;;;;;8.85;7.72;;;;;;;0.04;100.00;97973.44;1811990;78;20909;-69
2022/11/19 03:31:50;;;;;;;12.28;10.15;;;;;;;-0.08;100.00;97977.34;1805125;79;20919;-69
2022/11/19 03:34:21;;;;;;;12.13;9.23;;;;;;;-0.06;100.00;97972.13;1816716;78;21330;-69
2022/11/19 03:36:49;;;;;;;10.65;9.55;;;;;;;0.09;100.00;97978.31;1803351;79;21234;-68
2022/11/19 03:39:18;;;;;;;10.48;9.08;;;;;;;-0.23;100.00;97976.42;1804988;78;21140;-69
2022/11/19 03:41:47;;;;;;;10.80;8.50;;;;;;;-0.31;100.00;97988.59;1786289;79;20973;-69
2022/11/19 03:44:29;;;;;;;;;;;;;;;0.05;100.00;97981.63;1818147;78;20929;-69
2022/11/19 03:47:03;;;;;;;9.48;7.65;;;;;;;0.10;100.00;97993.14;1817319;78;21184;-69
2022/11/19 03:49:34;;;;;;;10.40;9.38;;;;;;;0.02;100.00;97990.80;1812133;78;22088;-69
2022/11/19 03:52:14;;;;;;;11.40;9.58;;;;;;;0.09;100.00;97988.87;1787034;78;20918;-68
2022/11/19 03:54:41;;;;;;;11.55;9.18;;;;;;;-0.32;100.00;97985.66;1809431;78;21441;-70
2022/11/19 03:57:11;;;;;;;9.95;8.68;;;;;;;-0.52;100.00;97985.38;1805456;78;21433;-68
2022/11/19 03:59:37;;;;;;;11.22;9.60;;;;;;;-0.45;100.00;97983.98;1811560;78;20935;-68
2022/11/19 04:02:07;;;;;;;12.23;9.65;;;;;;;-0.23;100.00;97981.69;1803958;79;21226;-69
2022/11/19 04:04:37;;;;;;;10.72;9.18;;;;;;;-0.24;100.00;97975.63;1807621;78;20911;-68
2022/11/19 04:07:10;;;;;;;9.17;8.17;;;;;;;-0.52;100.00;97980.63;1807931;78;21078;-68
2022/11/19 04:09:37;;;;;;;11.45;10.25;;;;;;;-0.30;100.00;97975.70;1811785;78;21435;-68
2022/11/19 04:12:07;;;;;;;11.90;10.05;;;;;;;-0.46;100.00;97980.55;1814120;78;20836;-69
2022/11/19 04:14:34;;;;;;;10.82;9.53;;;;;;;-0.39;100.00;97987.08;1810426;78;21117;-67
2022/11/19 04:17:01;;;;;;;13.60;11.53;;;;;;;-0.18;100.00;97992.89;1808938;78;20997;-68
2022/11/19 04:19:27;;;;;;;11.50;10.08;;;;;;;-0.54;100.00;98001.11;1807642;78;21368;-69
2022/11/19 04:21:54;;;;;;;14.38;11.85;;;;;;;-0.57;100.00;97995.77;1811454;79;21038;-68
2022/11/19 04:24:22;;;;;;;15.08;12.13;;;;;;;-0.45;100.00;97997.97;1805084;79;21456;-68
2022/11/19 04:26:49;;;;;;;12.13;10.38;;;;;;;-0.55;100.00;98000.31;1809714;78;21160;-68
2022/11/19 04:29:16;;;;;;;15.75;11.38;;;;;;;-0.66;100.00;97997.91;1816257;79;21001;-68
2022/11/19 04:31:43;;;;;;;15.40;11.43;;;;;;;-0.82;100.00;98003.75;1818254;79;21564;-68
2022/11/19 04:34:10;;;;;;;14.95;11.00;;;;;;;-0.49;100.00;97994.18;1805820;79;21065;-68
2022/11/19 04:36:39;;;;;;;11.97;10.53;;;;;;;-0.90;100.00;97997.45;1807681;79;20969;-68
2022/11/19 04:39:06;;;;;;;11.48;10.20;;;;;;;-0.91;100.00;97991.39;1805577;79;21215;-68
2022/11/19 04:41:33;;;;;;;13.45;11.50;;;;;;;-0.39;100.00;97999.42;1807231;79;20912;-68
2022/11/19 04:44:00;;;;;;;16.00;12.13;;;;;;;-0.95;100.00;97995.98;1810636;78;21056;-68
2022/11/19 04:46:27;;;;;;;15.55;12.05;;;;;;;-0.93;100.00;97996.55;1810916;79;20946;-68
2022/11/19 04:48:53;;;;;;;15.93;11.18;;;;;;;-0.96;100.00;97994.36;1819360;79;21043;-68
2022/11/19 04:51:20;;;;;;;17.80;11.03;;;;;;;-0.99;100.00;97989.53;1811125;79;21253;-69
2022/11/19 04:53:48;;;;;;;14.67;11.60;;;;;;;-0.93;100.00;97987.33;1804224;79;21409;-68
2022/11/19 04:56:15;;;;;;;13.38;10.63;;;;;;;-0.75;100.00;97981.30;1779445;79;21054;-69
2022/11/19 04:58:42;;;;;;;13.15;10.18;;;;;;;-0.38;100.00;97983.40;1803362;79;20974;-69
2022/11/19 05:01:08;;;;;;;15.05;10.00;;;;;;;-0.28;100.00;97982.36;1809468;79;20874;-68
2022/11/19 05:03:35;;;;;;;13.35;11.05;;;;;;;-0.77;100.00;97989.41;1819030;79;21114;-69
2022/11/19 05:06:03;;;;;;;15.72;12.35;;;;;;;-0.78;100.00;97987.01;1808171;79;20967;-68
2022/11/19 05:08:29;;;;;;;17.17;12.07;;;;;;;-0.78;100.00;97990.44;1815780;79;20937;-68
2022/11/19 05:10:57;;;;;;;17.82;13.30;;;;;;;-0.80;100.00;97995.13;1818356;78;20827;-68
2022/11/19 05:13:24;;;;;;;15.70;12.40;;;;;;;-0.78;100.00;98011.52;1818419;79;20918;-68
2022/11/19 05:15:51;;;;;;;17.02;12.03;;;;;;;-0.74;100.00;98003.97;1784911;78;21472;-68
2022/11/19 05:18:17;;;;;;;14.93;12.50;;;;;;;-0.82;100.00;98004.27;1810982;79;20863;-69
2022/11/19 05:20:44;;;;;;;15.25;13.10;;;;;;;-0.88;100.00;98011.22;1805140;79;20915;-68
2022/11/19 05:23:11;;;;;;;17.67;13.05;;;;;;;-0.81;100.00;98001.91;1753742;78;20914;-68
2022/11/19 05:25:38;;;;;;;17.93;14.37;;;;;;;-1.04;100.00;98003.34;1806677;78;21104;-68
2022/11/19 05:28:05;;;;;;;16.93;12.50;;;;;;;-0.73;100.00;98002.96;1809574;78;21658;-68
2022/11/19 05:30:32;;;;;;;18.82;12.93;;;;;;;162.32;0.00;121243.64;1811258;78;21081;-68
2022/11/19 05:32:59;;;;;;;14.18;11.80;;;;;;;-0.90;100.00;98011.95;1785944;78;20926;-68
2022/11/19 05:35:27;;;;;;;17.10;12.80;;;;;;;-0.67;100.00;98015.25;1808013;78;20934;-68
2022/11/19 05:37:54;;;;;;;16.75;12.18;;;;;;;-0.72;100.00;98016.42;1808589;78;20906;-68
2022/11/19 05:40:21;;;;;;;17.40;12.07;;;;;;;-0.60;100.00;98013.88;1812796;78;21239;-69
2022/11/19 05:42:47;;;;;;;18.10;12.88;;;;;;;-146.14;0.00;3345.76;1816866;78;20875;-68
2022/11/19 05:45:20;;;;;;;15.15;12.60;;;;;;;-146.14;100.00;121243.23;1808246;78;20923;-68
2022/11/19 05:51:15;;;;;;;17.37;13.55;;;;;;;-146.14;100.00;121243.23;1813726;78;21519;-69
2022/11/19 05:53:42;;;;;;;17.35;12.23;;;;;;;-0.53;100.00;98015.92;1816885;78;20917;-69
2022/11/19 05:56:09;;;;;;;20.25;13.78;;;;;;;-0.92;100.00;98063.52;1812204;78;21131;-69
2022/11/19 05:58:36;;;;;;;25.23;15.32;;;;;;;-0.71;100.00;98063.64;1817509;78;20982;-69
2022/11/19 06:01:02;;;;;;;18.27;14.95;;;;;;;-0.62;100.00;98062.03;1819500;78;20902;-69
2022/11/19 06:03:29;;;;;;;27.48;15.80;;;;;;;-0.16;100.00;98068.64;1814844;78;20918;-69
2022/11/19 06:05:56;;;;;;;25.50;17.37;;;;;;;-0.17;100.00;98084.16;1801532;78;21471;-69
2022/11/19 06:08:22;;;;;;;29.95;19.37;;;;;;;-0.38;100.00;98080.14;1808182;79;21105;-69
2022/11/19 06:10:50;;;;;;;32.78;19.57;;;;;;;-0.50;100.00;98086.64;1813232;78;21535;-69
2022/11/19 06:13:18;;;;;;;29.95;19.40;;;;;;;-0.58;100.00;98093.52;1807106;79;20883;-69
2022/11/19 06:15:47;;;;;;;22.60;16.48;;;;;;;-0.46;100.00;98100.49;1813805;78;21389;-69
2022/11/19 06:18:13;;;;;;;24.92;17.50;;;;;;;-0.42;100.00;98105.32;1818626;78;20839;-69
2022/11/19 06:20:40;;;;;;;22.17;16.35;;;;;;;-0.60;100.00;98104.79;1812867;78;21125;-69
2022/11/19 06:23:07;;;;;;;39.03;25.30;;;;;;;-0.30;100.00;98107.53;1809665;78;20918;-69
2022/11/19 06:25:34;;;;;;;28.07;20.05;;;;;;;-0.59;100.00;98117.73;1809984;78;20969;-69
2022/11/19 06:28:01;;;;;;;32.67;24.10;;;;;;;-146.14;100.00;121243.23;1815871;78;20942;-69
2022/11/19 06:30:28;;;;;;;30.43;21.37;;;;;;;;;;1816368;78;20939;-69
2022/11/19 06:33:29;;;;;;;24.85;17.55;;;;;;;159.24;0.00;121243.23;1811382;79;21201;-68
2022/11/19 06:36:07;;;;;;;18.12;13.32;;;;;;;-146.14;0.00;121243.23;1811062;78;20886;-67
2022/11/19 06:39:12;;;;;;;20.97;14.10;;;;;;;-146.14;0.00;121329.81;1811468;78;20970;-67
2022/11/19 06:41:43;;;;;;;18.60;14.30;;;;;;;-146.14;100.00;121243.23;1812260;78;20891;-69
2022/11/19 06:44:19;;;;;;;19.35;13.38;;;;;;;-146.14;100.00;121243.23;1787128;79;20894;-68
2022/11/19 06:51:11;;;;;;;28.27;18.00;;;;;;;-144.81;100.00;-1306.81;1812537;78;21229;-69
2022/11/19 06:54:04;;;;;;;23.40;14.55;;;;;;;-146.14;100.00;121243.23;1811217;78;20974;-74
2022/11/19 06:56:34;;;;;;;19.37;13.50;;;;;;;-146.14;100.00;121243.64;1750741;82;20885;-68
2022/11/19 06:59:01;;;;;;;19.32;13.95;;;;;;;-146.14;100.00;121243.11;1768233;80;20833;-69
2022/11/19 07:01:29;;;;;;;21.73;15.15;;;;;;;-146.14;100.00;121243.23;1745618;79;20918;-68
2022/11/19 07:04:09;;;;;;;18.70;13.38;;;;;;;-146.14;100.00;121243.23;1757995;80;22181;-70
2022/11/19 07:06:44;;;;;;;19.12;14.80;;;;;;;-146.14;100.00;121243.23;1750310;81;21502;-69
2022/11/19 07:16:42;;;;;;;22.07;15.05;;;;;;;-146.14;100.00;121243.23;1798483;79;20895;-67
2022/11/19 07:19:08;;;;;;;23.62;16.52;;;;;;;-93.79;51.63;77175.97;1817422;78;21008;-68
2022/11/19 07:21:36;;;;;;;37.97;21.53;;;;;;;159.24;0.00;98118.13;1809610;78;22268;-68
2022/11/19 07:24:06;;;;;;;40.15;18.50;;;;;;;159.24;100.00;77021.06;1814825;78;21195;-68
2022/11/19 07:26:34;;;;;;;34.25;21.35;;;;;;;159.24;0.00;121243.64;1816020;78;20973;-68
2022/11/19 07:29:04;;;;;;;41.08;23.20;;;;;;;-146.13;0.00;86975.05;1814575;78;20911;-68
2022/11/19 07:31:38;;;;;;;55.52;27.48;;;;;;;-146.14;0.00;121243.23;1815652;78;20875;-69
2022/11/19 07:34:10;;;;;;;37.80;23.55;;;;;;;-145.71;58.67;121243.23;1809168;78;21891;-68
2022/11/19 07:36:38;;;;;;;24.57;16.93;;;;;;;159.24;100.00;121243.23;1810539;78;20926;-69
2022/11/19 07:39:05;;;;;;;15.68;11.57;;;;;;;-146.13;100.00;121243.23;1817952;78;20973;-70
2022/11/19 07:44:18;;;;;;;12.30;10.50;;;;;;;-146.14;100.00;121243.64;1808813;78;21465;-70
2022/11/19 07:46:46;;;;;;;13.15;10.58;;;;;;;-146.14;100.00;121243.23;1813616;78;21765;-70
2022/11/19 07:49:21;;;;;;;12.10;9.98;;;;;;;-146.14;100.00;121243.23;1810672;78;20933;-69
2022/11/19 07:52:10;;;;;;;17.32;12.03;;;;;;;-146.14;100.00;121243.23;1750728;82;20960;-67
2022/11/19 07:54:40;;;;;;;;;;;;;;;-146.14;100.00;121243.23;1774995;80;21444;-69
2022/11/19 07:57:11;;;;;;;32.08;17.10;;;;;;;-142.06;100.00;121243.23;1774845;79;20424;-70
2022/11/19 07:59:38;;;;;;;51.90;22.77;;;;;;;-0.55;100.00;98118.13;1749878;79;21331;-70
2022/11/19 08:02:05;;;;;;;37.63;17.62;;;;;;;1.09;100.00;98269.27;1733910;81;20970;-71
2022/11/19 08:04:32;;;;;;;26.87;17.50;;;;;;;1.44;100.00;98272.82;1737457;80;20927;-68
2022/11/19 08:07:00;;;;;;;24.05;16.90;;;;;;;1.49;100.00;98275.62;1728274;82;20927;-69
2022/11/19 08:09:27;;;;;;;16.27;12.20;;;;;;;1.50;100.00;98284.36;1738503;79;21573;-69
2022/11/19 08:11:54;;;;;;;14.40;11.85;;;;;;;0.99;100.00;98290.42;1761259;80;21180;-69
2022/11/19 08:14:21;;;;;;;15.55;11.08;;;;;;;0.91;100.00;98289.91;1761171;80;20900;-68
2022/11/19 08:19:36;;;;;;;13.90;10.48;;;;;;;1.05;100.00;98308.53;1751981;80;21014;-69
2022/11/19 08:22:03;;;;;;;14.75;10.85;;;;;;;1.43;100.00;98308.77;1746012;80;21005;-69
2022/11/19 08:24:30;;;;;;;59.55;26.62;;;;;;;2.01;100.00;98320.01;1734862;81;21117;-67
2022/11/19 08:26:56;;;;;;;49.03;22.73;;;;;;;1.74;100.00;98332.84;1740662;81;20881;-69
2022/11/19 08:29:23;;;;;;;22.52;15.50;;;;;;;1.86;100.00;98335.49;1798803;79;20913;-69
2022/11/19 08:31:51;;;;;;;16.77;14.43;;;;;;;1.91;100.00;98322.38;1798738;79;20973;-69
2022/11/19 08:34:18;;;;;;;11.95;10.75;;;;;;;1.65;100.00;98335.52;1790624;79;21181;-70
2022/11/19 08:36:46;;;;;;;12.50;11.00;;;;;;;1.70;100.00;98336.44;1791416;79;21141;-68
2022/11/19 08:39:12;;;;;;;13.00;11.12;;;;;;;1.52;100.00;98343.12;1786751;79;21418;-69
2022/11/19 08:44:25;;;;;;;40.70;23.50;;;;;;;1.58;100.00;98359.92;1802420;79;21031;-70
2022/11/19 08:46:53;;;;;;;22.47;13.90;;;;;;;1.53;100.00;98357.15;1793247;79;21447;-68
2022/11/19 08:49:20;;;;;;;15.78;11.33;;;;;;;1.33;100.00;98366.66;1801274;79;21143;-68
2022/11/19 08:51:46;;;;;;;11.35;9.33;;;;;;;1.20;100.00;98372.41;1790876;79;21043;-69
2022/11/19 08:54:13;;;;;;;11.85;10.00;;;;;;;1.31;100.00;98379.30;1792460;79;21589;-71
2022/11/19 08:56:41;;;;;;;13.13;8.08;;;;;;;1.24;100.00;98380.17;1797400;79;20932;-68
2022/11/19 08:59:08;;;;;;;10.28;8.75;;;;;;;1.38;100.00;98383.47;1830960;77;21597;-69
2022/11/19 09:01:35;;;;;;;16.95;11.85;;;;;;;1.41;100.00;98391.47;1756362;81;21165;-73
2022/11/19 09:04:02;;;;;;;20.95;12.90;;;;;;;1.66;100.00;98387.38;1754078;80;20913;-70
2022/11/19 09:06:28;;;;;;;14.87;11.05;;;;;;;1.72;100.00;98387.81;1823943;77;21415;-68
2022/11/19 09:08:57;;;;;;;11.50;9.73;;;;;;;1.76;100.00;98387.63;1824523;77;20900;-70
2022/11/19 09:11:24;;;;;;;10.68;8.88;;;;;;;1.23;100.00;98406.84;1756906;81;20962;-71
2022/11/19 09:13:50;;;;;;;11.55;8.73;;;;;;;1.21;100.00;98418.14;1748153;80;21222;-69
2022/11/19 09:16:17;;;;;;;10.88;8.40;;;;;;;1.52;100.00;98423.78;1758321;81;20993;-70
2022/11/19 09:18:44;;;;;;;10.65;9.55;;;;;;;1.28;100.00;98420.20;1812359;77;20956;-72
2022/11/19 09:21:11;;;;;;;14.75;11.08;;;;;;;1.56;100.00;98405.62;1833229;77;21020;-70
2022/11/19 09:23:38;;;;;;;11.80;9.90;;;;;;;1.64;100.00;98407.45;1826467;77;21086;-70
2022/11/19 09:26:13;;;;;;;10.55;8.88;;;;;;;1.70;100.00;98414.48;1833276;77;21325;-70
2022/11/19 09:28:40;;;;;;;10.15;9.03;;;;;;;1.71;100.00;98414.78;1838806;78;20830;-68
2022/11/19 09:31:11;;;;;;;9.88;8.93;;;;;;;1.52;100.00;98413.70;1824407;77;20898;-69
2022/11/19 09:33:43;;;;;;;11.55;9.55;;;;;;;1.36;100.00;98422.53;1752077;81;21044;-70
2022/11/19 09:36:14;;;;;;;10.93;9.80;;;;;;;1.35;100.00;98426.22;1759845;80;20913;-72
2022/11/19 09:38:41;;;;;;;10.88;9.60;;;;;;;1.35;100.00;98418.29;1758655;81;21247;-68
2022/11/19 09:41:45;;;;;;;10.93;9.55;;;;;;;1.32;100.00;98433.25;1779327;80;21031;-70
2022/11/19 09:44:37;;;;;;;12.10;9.40;;;;;;;1.36;100.00;98433.11;1683629;83;21098;-70
2022/11/19 09:47:41;;;;;;;11.63;9.55;;;;;;;1.39;100.00;98432.66;1691951;82;20986;-68
2022/11/19 09:50:22;;;;;;;10.40;9.30;;;;;;;1.54;100.00;98426.98;1704160;82;21135;-69
2022/11/19 09:53:06;;;;;;;12.53;9.78;;;;;;;1.66;100.00;98439.75;1704145;83;21220;-71
2022/11/19 09:55:43;;;;;;;11.73;9.88;;;;;;;1.82;100.00;98438.34;1690249;82;21570;-69
2022/11/19 09:58:24;;;;;;;10.78;9.68;;;;;;;1.96;100.00;98454.86;1688072;82;20909;-70
2022/11/19 10:00:50;;;;;;;13.80;11.00;;;;;;;1.83;100.00;98454.50;1684712;84;21013;-70
2022/11/19 10:03:21;;;;;;;10.25;9.25;;;;;;;1.85;100.00;98437.89;1669078;83;20956;-71
2022/11/19 10:06:08;;;;;;;11.03;8.98;;;;;;;2.23;100.00;98440.73;1684051;84;21146;-70
2022/11/19 10:09:09;;;;;;;11.43;10.23;;;;;;;2.26;100.00;98437.62;1673970;84;21044;-72
2022/11/19 10:11:49;;;;;;;10.78;9.50;;;;;;;2.36;100.00;98443.68;1676175;83;20994;-67
2022/11/19 10:14:35;;;;;;;;;;;;;;;2.22;100.00;98452.33;1671850;85;21546;-69
2022/11/19 10:17:36;;;;;;;9.80;8.55;;;;;;;2.42;100.00;98448.58;1681489;84;20115;-68
2022/11/19 10:20:32;;;;;;;12.25;9.30;;;;;;;2.24;100.00;98447.63;1704748;81;21195;-69
2022/11/19 10:23:07;;;;;;;9.65;8.65;;;;;;;2.36;100.00;98451.63;1745011;81;21434;-68
2022/11/19 10:25:46;;;;;;;10.03;9.03;;;;;;;2.62;100.00;98456.20;1721631;81;21066;-68
2022/11/19 10:28:19;;;;;;;11.10;9.68;;;;;;;2.57;100.00;98458.21;1718118;81;20926;-68
2022/11/19 10:30:50;;;;;;;16.10;11.88;;;;;;;2.59;100.00;98465.41;1751071;81;21508;-67
2022/11/19 10:33:34;;;;;;;11.08;9.20;;;;;;;2.66;100.00;98479.36;1753753;81;22191;-67
2022/11/19 10:36:09;;;;;;;13.78;9.75;;;;;;;2.53;100.00;98490.19;1727023;81;20932;-67
2022/11/19 10:38:48;;;;;;;12.07;10.70;;;;;;;2.15;100.00;98486.03;1722990;81;21448;-68
2022/11/19 10:41:38;;;;;;;18.07;14.95;;;;;;;2.14;100.00;98494.50;1712590;83;20949;-67
2022/11/19 10:44:42;;;;;;;62.93;33.42;;;;;;;2.05;100.00;98497.16;1723019;82;20981;-69
2022/11/19 10:47:24;;;;;;;17.98;16.02;;;;;;;1.82;100.00;98508.98;1723772;82;21346;-70
2022/11/19 10:49:54;;;;;;;19.77;18.12;;;;;;;1.71;100.00;98523.75;1746210;82;20907;-70
2022/11/19 10:52:40;;;;;;;13.48;12.28;;;;;;;1.36;100.00;98532.27;1731755;82;21447;-71
2022/11/19 10:55:32;;;;;;;12.33;10.18;;;;;;;1.40;100.00;98540.06;1737616;81;20987;-72
2022/11/19 10:58:17;;;;;;;12.33;11.03;;;;;;;1.30;100.00;98531.83;1731705;80;20937;-71
2022/11/19 11:00:43;;;;;;;14.13;12.28;;;;;;;1.49;100.00;98548.02;1730106;82;20953;-68
2022/11/19 11:03:35;;;;;;;137.72;125.72;;;;;;;1.82;100.00;98556.09;1710292;82;20917;-71
2022/11/19 11:06:05;;;;;;;43.73;40.23;;;;;;;0.80;100.00;98549.82;1736551;82;20951;-67
2022/11/19 11:08:32;;;;;;;15.50;12.37;;;;;;;0.60;100.00;98568.45;1739432;82;20988;-68
2022/11/19 11:11:00;;;;;;;;;;;;;;;0.71;100.00;98583.31;1738346;82;21416;-69
2022/11/19 11:16:45;;;;;;;269.07;104.23;;;;;;;0.42;100.00;98585.02;1729406;82;21462;-69
2022/11/19 11:19:18;;;;;;;570.77;228.98;;;;;;;0.42;100.00;98586.86;1729081;82;21039;-70
2022/11/19 11:21:46;;;;;;;267.62;97.30;;;;;;;0.35;100.00;98587.41;1733735;82;21041;-69
2022/11/19 11:24:13;;;;;;;361.12;155.22;;;;;;;0.26;100.00;98592.10;1735570;82;21467;-69
2022/11/19 11:26:40;;;;;;;53.95;30.75;;;;;;;0.28;100.00;98595.86;1735568;82;21270;-69
2022/11/19 11:29:19;;;;;;;43.95;39.85;;;;;;;0.37;100.00;98611.77;1734469;82;21542;-68
2022/11/19 11:31:46;;;;;;;16.42;14.73;;;;;;;0.72;100.00;98612.16;1731915;82;28611;-68
2022/11/19 11:34:30;;;;;;;11.75;10.38;;;;;;;0.52;100.00;98615.45;1732690;82;21013;-70
2022/11/19 11:36:59;;;;;;;15.95;13.00;;;;;;;0.51;100.00;98622.53;1738143;80;20985;-69
2022/11/19 11:39:29;;;;;;;14.45;12.95;;;;;;;0.56;100.00;98627.98;1764627;80;21140;-70
2022/11/19 11:41:58;;;;;;;14.13;12.37;;;;;;;0.71;100.00;98625.09;1771762;80;20929;-70
2022/11/19 11:44:32;;;;;;;12.43;10.45;;;;;;;0.67;100.00;98627.05;1774863;80;21000;-68
2022/11/19 11:47:12;;;;;;;11.95;10.75;;;;;;;0.82;100.00;98629.67;1752864;80;20920;-69
2022/11/19 11:49:42;;;;;;;11.97;10.78;;;;;;;0.74;100.00;98627.30;1772030;80;21443;-69
2022/11/19 11:52:22;;;;;;;18.07;12.58;;;;;;;0.84;100.00;98634.75;1762277;80;21957;-70
2022/11/19 11:54:56;;;;;;;16.20;12.73;;;;;;;0.47;100.00;98653.04;1771778;80;20987;-71
2022/11/19 11:57:27;;;;;;;14.83;12.20;;;;;;;0.92;100.00;98665.39;1756176;80;20984;-69
2022/11/19 11:59:54;;;;;;;13.32;11.65;;;;;;;0.53;100.00;98675.14;1741260;82;20976;-69
2022/11/19 12:02:28;;;;;;;11.40;9.63;;;;;;;0.67;100.00;98697.03;1753635;81;21450;-68
2022/11/19 12:04:58;;;;;;;11.75;10.05;;;;;;;0.35;100.00;98697.77;1744353;81;21268;-67
2022/11/19 12:07:59;;;;;;;17.48;13.32;;;;;;;0.21;100.00;98703.58;1699244;83;21000;-69
2022/11/19 12:10:53;;;;;;;27.00;23.38;;;;;;;0.19;100.00;98702.97;1684138;84;20980;-69
2022/11/19 12:13:35;;;;;;;49.20;29.90;;;;;;;0.34;100.00;98707.20;1753943;81;20956;-67
2022/11/19 12:16:16;;;;;;;110.85;60.52;;;;;;;0.34;100.00;98709.84;1730603;81;20925;-70
2022/11/19 12:19:14;;;;;;;88.62;52.50;;;;;;;0.36;100.00;98695.41;1705966;83;21262;-68
2022/11/19 12:22:05;;;;;;;34.83;27.00;;;;;;;0.46;100.00;98729.30;1770608;79;21391;-69